Map

Track Data

SID SEASON NUMBER BASIN SUBBASIN NAME ISO_TIME NATURE LAT LON WMO_WIND WMO_PRES WMO_AGENCY TRACK_TYPE DIST2LAND LANDFALL IFLAG USA_AGENCY USA_ATCF_ID USA_LAT USA_LON USA_RECORD USA_STATUS USA_WIND USA_PRES USA_SSHS USA_R34_NE USA_R34_SE USA_R34_SW USA_R34_NW USA_R50_NE USA_R50_SE USA_R50_SW USA_R50_NW USA_R64_NE USA_R64_SE USA_R64_SW USA_R64_NW USA_POCI USA_ROCI USA_RMW USA_EYE TOKYO_LAT TOKYO_LON TOKYO_GRADE TOKYO_WIND TOKYO_PRES TOKYO_R50_DIR TOKYO_R50_LONG TOKYO_R50_SHORT TOKYO_R30_DIR TOKYO_R30_LONG TOKYO_R30_SHORT TOKYO_LAND CMA_LAT CMA_LON CMA_CAT CMA_WIND CMA_PRES HKO_LAT HKO_LON HKO_CAT HKO_WIND HKO_PRES NEWDELHI_LAT NEWDELHI_LON NEWDELHI_GRADE NEWDELHI_WIND NEWDELHI_PRES NEWDELHI_CI NEWDELHI_DP NEWDELHI_POCI REUNION_LAT REUNION_LON REUNION_TYPE REUNION_WIND REUNION_PRES REUNION_TNUM REUNION_CI REUNION_RMW REUNION_R34_NE REUNION_R34_SE REUNION_R34_SW REUNION_R34_NW REUNION_R50_NE REUNION_R50_SE REUNION_R50_SW REUNION_R50_NW REUNION_R64_NE REUNION_R64_SE REUNION_R64_SW REUNION_R64_NW BOM_LAT BOM_LON BOM_TYPE BOM_WIND BOM_PRES BOM_TNUM BOM_CI BOM_RMW BOM_R34_NE BOM_R34_SE BOM_R34_SW BOM_R34_NW BOM_R50_NE BOM_R50_SE BOM_R50_SW BOM_R50_NW BOM_R64_NE BOM_R64_SE BOM_R64_SW BOM_R64_NW BOM_ROCI BOM_POCI BOM_EYE BOM_POS_METHOD BOM_PRES_METHOD NADI_LAT NADI_LON NADI_CAT NADI_WIND NADI_PRES WELLINGTON_LAT WELLINGTON_LON WELLINGTON_WIND WELLINGTON_PRES DS824_LAT DS824_LON DS824_STAGE DS824_WIND DS824_PRES TD9636_LAT TD9636_LON TD9636_STAGE TD9636_WIND TD9636_PRES TD9635_LAT TD9635_LON TD9635_WIND TD9635_PRES TD9635_ROCI NEUMANN_LAT NEUMANN_LON NEUMANN_CLASS NEUMANN_WIND NEUMANN_PRES MLC_LAT MLC_LON MLC_CLASS MLC_WIND MLC_PRES USA_GUST BOM_GUST BOM_GUST_PER REUNION_GUST REUNION_GUST_PER USA_SEAHGT USA_SEARAD_NE USA_SEARAD_SE USA_SEARAD_SW USA_SEARAD_NW STORM_SPEED STORM_DIR
1892011S05088 1892 3 SI MM NOT_NAMED 1892-01-11 06:00:00 NR -5.00000 88.1000 main 1207 1207 _____O________ -1 -5.00000 88.1000 99 9.90000 2 190
1892011S05088 1892 3 SI MM NOT_NAMED 1892-01-11 09:00:00 NR -5.11700 88.0992 main 1215 1215 _____P________ -1 -5.11700 88.0992 99 2 186
1892011S05088 1892 3 SI MM NOT_NAMED 1892-01-11 12:00:00 NR -5.23595 88.0984 main 1223 1223 _____P________ -1 -5.23595 88.0984 99 2 0
1892011S05088 1892 3 SI MM NOT_NAMED 1892-01-11 15:00:00 NR -5.35880 88.0978 main 1239 1239 _____P________ -1 -5.35880 88.0978 99 3 0
1892011S05088 1892 3 SI MM NOT_NAMED 1892-01-11 18:00:00 NR -5.55001 88.1180 main 1255 1255 _____P____O___ -1 -5.48752 88.0975 99 -5.80000 88.2000 7 4 173
1892011S05088 1892 3 SI MM NOT_NAMED 1892-01-11 21:00:00 NR -5.74988 88.1295 main 1264 1264 _____P____P___ -1 -5.62404 88.0974 99 -6.00156 88.1938 7 4 0
1892011S05088 1892 3 SI MM NOT_NAMED 1892-01-12 00:00:00 NR -5.95554 88.1373 main 1284 1284 _____P____P___ -1 -5.77032 88.0978 99 -6.20250 88.1900 7 4 0
1892011S05088 1892 3 SI MM NOT_NAMED 1892-01-12 03:00:00 NR -6.16526 88.1449 main 1293 1293 _____P____P___ -1 -5.92832 88.0986 99 -6.40219 88.1913 7 4 0
1892011S05088 1892 3 SI MM NOT_NAMED 1892-01-12 06:00:00 NR -6.35000 88.1500 main 1288 1293 _____O____O___ -1 -6.10000 88.1000 99 9.90000 -6.60000 88.2000 7 4 0
1892011S05088 1892 3 SI MM NOT_NAMED 1892-01-12 09:00:00 NR -6.54123 88.1600 main 1298 1298 _____P____P___ -1 -6.28652 88.1021 99 -6.79594 88.2178 7 4 177
1892011S05088 1892 3 SI MM NOT_NAMED 1892-01-12 12:00:00 NR -6.73922 88.1741 main 1308 1308 _____P____P___ -1 -6.48594 88.1057 99 -6.99250 88.2425 7 4 174
1892011S05088 1892 3 SI MM NOT_NAMED 1892-01-12 15:00:00 NR -6.94417 88.1912 main 1319 1319 _____P____P___ -1 -6.69552 88.1114 99 -7.19281 88.2709 7 4 175
1892011S05088 1892 3 SI MM NOT_NAMED 1892-01-12 18:00:00 NR -7.15626 88.2101 main 1335 1335 _____P____O___ -1 -6.91251 88.1201 99 -7.40000 88.3000 7 4 176
1892011S05088 1892 3 SI MM NOT_NAMED 1892-01-12 21:00:00 NR -7.38006 88.2267 main 1346 1346 _____P____P___ -1 -7.13420 88.1325 99 -7.62593 88.3210 7 5 175
1892011S05088 1892 3 SI MM NOT_NAMED 1892-01-13 00:00:00 NR -7.60766 88.2460 main 1358 1354 _____P____P___ -1 -7.35783 88.1495 99 -7.85749 88.3425 7 5 175
1892011S05088 1892 3 SI MM NOT_NAMED 1892-01-13 03:00:00 NR -7.83299 88.2698 main 1359 1359 _____P____P___ -1 -7.58067 88.1717 99 -8.08531 88.3678 7 4 173
1892011S05088 1892 3 SI MM NOT_NAMED 1892-01-13 06:00:00 NR -8.05000 88.3000 main 1370 1376 _____O____O___ -1 -7.80000 88.2000 99 9.90000 -8.30000 88.4000 7 4 170
1892011S05088 1892 3 SI MM NOT_NAMED 1892-01-13 09:00:00 NR -8.23996 88.3394 main 1382 1378 _____P____P___ -1 -8.00274 88.2360 99 -8.47719 88.4428 7 4 166
1892011S05088 1892 3 SI MM NOT_NAMED 1892-01-13 12:00:00 NR -8.42282 88.3855 main 1384 1384 _____P____P___ -1 -8.20313 88.2784 99 -8.64250 88.4925 7 4 165
1892011S05088 1892 3 SI MM NOT_NAMED 1892-01-13 15:00:00 NR -8.60676 88.4360 main 1396 1393 _____P____P___ -1 -8.40196 88.3260 99 -8.81156 88.5460 7 4 164
1892011S05088 1892 3 SI MM NOT_NAMED 1892-01-13 18:00:00 NR -8.80000 88.4887 main 1399 1399 _____P____O___ -1 -8.60001 88.3775 99 -9.00000 88.6000 7 4 165
1892011S05088 1892 3 SI MM NOT_NAMED 1892-01-13 21:00:00 NR -9.01731 88.5389 main 1412 1410 _____P____P___ -1 -8.79806 88.4318 99 -9.23656 88.6460 7 5 168
1892011S05088 1892 3 SI MM NOT_NAMED 1892-01-14 00:00:00 NR -9.24469 88.5902 main 1416 1416 _____P____P___ -1 -8.99689 88.4878 99 -9.49249 88.6925 7 5 167
1892011S05088 1892 3 SI MM NOT_NAMED 1892-01-14 03:00:00 NR -9.47473 88.6436 main 1436 1427 _____P____P___ -1 -9.19727 88.5443 99 -9.75218 88.7428 7 5 167
1892011S05088 1892 3 SI MM NOT_NAMED 1892-01-14 06:00:00 NR -9.70000 88.7000 main 1441 1441 _____O____O___ -1 -9.40000 88.6000 99 9.90000 -10.0000 88.8000 7 5 165
1892011S05088 1892 3 SI MM NOT_NAMED 1892-01-14 09:00:00 NR -9.91505 88.7609 main 1446 1446 _____P____P___ -1 -9.61167 88.6500 99 -10.2184 88.8719 7 4 164
1892011S05088 1892 3 SI MM NOT_NAMED 1892-01-14 12:00:00 NR -10.1242 88.8250 main 1460 1459 _____P____P___ -1 -9.82592 88.7000 99 -10.4225 88.9500 7 4 163
1892011S05088 1892 3 SI MM NOT_NAMED 1892-01-14 15:00:00 NR -10.3284 88.8891 main 1466 1466 _____P____P___ -1 -10.0416 88.7501 99 -10.6153 89.0281 7 4 162
1892011S05088 1892 3 SI MM NOT_NAMED 1892-01-14 18:00:00 NR -10.5287 88.9500 main 1473 1473 _____P____O___ -1 -10.2575 88.8001 99 -10.8000 89.1000 7 4 164
1892011S05088 1892 3 SI MM NOT_NAMED 1892-01-14 21:00:00 NR -10.7253 89.0016 main 1488 1488 _____P____P___ -1 -10.4724 88.8501 99 -10.9781 89.1532 7 4 166
1892011S05088 1892 3 SI MM NOT_NAMED 1892-01-15 00:00:00 NR -10.9176 89.0501 main 1495 1495 _____P____P___ -1 -10.6853 88.9001 99 -11.1500 89.2001 7 4 166
1892011S05088 1892 3 SI MM NOT_NAMED 1892-01-15 03:00:00 NR -11.1084 89.0985 main 1510 1510 _____P____P___ -1 -10.8949 88.9500 99 -11.3219 89.2469 7 4 166
1892011S05088 1892 3 SI MM NOT_NAMED 1892-01-15 06:00:00 NR -11.3000 89.1500 main 1518 1518 _____O____O___ -1 -11.1000 89.0000 99 9.90000 -11.5000 89.3000 7 4 165
1892011S05088 1892 3 SI MM NOT_NAMED 1892-01-15 09:00:00 NR -11.4908 89.2061 main 1533 1533 _____P____P___ -1 -11.2929 89.0444 99 -11.6888 89.3678 7 4 163
1892011S05088 1892 3 SI MM NOT_NAMED 1892-01-15 12:00:00 NR -11.6831 89.2653 main 1542 1542 _____P____P___ -1 -11.4812 89.0881 99 -11.8850 89.4425 7 4 163
1892011S05088 1892 3 SI MM NOT_NAMED 1892-01-15 15:00:00 NR -11.8775 89.3266 main 1558 1558 _____P____P___ -1 -11.6663 89.1322 99 -12.0888 89.5210 7 4 163
1892011S05088 1892 3 SI MM NOT_NAMED 1892-01-15 18:00:00 NR -12.0750 89.3889 main 1567 1567 _____P____O___ -1 -11.8499 89.1779 99 -12.3000 89.6000 7 4 163
1892011S05088 1892 3 SI MM NOT_NAMED 1892-01-15 21:00:00 NR -12.2594 89.4507 main 1576 1576 _____P____P___ -1 -12.0335 89.2264 99 -12.4853 89.6751 7 4 162
1892011S05088 1892 3 SI MM NOT_NAMED 1892-01-16 00:00:00 NR -12.4506 89.5145 main 1593 1593 _____P____P___ -1 -12.2187 89.2788 99 -12.6825 89.7502 7 4 162
1892011S05088 1892 3 SI MM NOT_NAMED 1892-01-16 03:00:00 NR -12.6602 89.5807 main 1603 1603 _____P____P___ -1 -12.4070 89.3362 99 -12.9135 89.8251 7 5 164
1892011S05088 1892 3 SI MM NOT_NAMED 1892-01-16 06:00:00 NR -12.9000 89.6500 main 1613 1613 _____O____O___ -1 -12.6000 89.4000 99 9.90000 -13.2000 89.9000 7 6 165
1892011S05088 1892 3 SI MM NOT_NAMED 1892-01-16 09:00:00 NR -13.1888 89.7270 main 1639 1639 _____P____P___ -1 -12.8204 89.4791 99 -13.5572 89.9748 7 6 168
1892011S05088 1892 3 SI MM NOT_NAMED 1892-01-16 12:00:00 NR -13.4438 89.7729 main 1649 1649 _____P____P___ -1 -13.0472 89.5653 99 -13.9725 90.0497 7 5 170
1892011S05088 1892 3 SI MM NOT_NAMED 1892-01-16 15:00:00 NR -13.6596 89.8124 main 1676 1676 _____P____P___ -1 -13.2760 89.6562 99 -14.4266 90.1247 7 3 169
1892011S05088 1892 3 SI MM NOT_NAMED 1892-01-16 18:00:00 NR -13.7821 89.8396 main 1685 1676 _____P____O___ -1 -13.5026 89.7495 99 -14.9000 90.2000 7 1 143
1892011S05088 1892 3 SI MM NOT_NAMED 1892-01-16 21:00:00 NR -13.7226 89.8429 main 1676 1669 _____P________ -1 -13.7226 89.8429 99 7 2 150
1892011S05088 1892 3 SI MM NOT_NAMED 1892-01-17 00:00:00 NR -13.9316 89.9340 main 1687 1687 _____P________ -1 -13.9316 89.9340 99 7 4 157
1892011S05088 1892 3 SI WA NOT_NAMED 1892-01-17 03:00:00 NR -14.1255 90.0205 main 1699 1699 _____P________ -1 -14.1255 90.0205 99 7 4 156
1892011S05088 1892 3 SI WA NOT_NAMED 1892-01-17 06:00:00 NR -14.3000 90.1000 main 1711 1711 _____O________ -1 -14.3000 90.1000 99 9.90000 4 156
1892011S05088 1892 3 SI WA NOT_NAMED 1892-01-17 09:00:00 NR -14.4519 90.1707 main 1723 1723 _____P________ -1 -14.4519 90.1707 99 3 155
1892011S05088 1892 3 SI WA NOT_NAMED 1892-01-17 12:00:00 NR -14.5831 90.2331 main 1732 1726 _____P________ -1 -14.5831 90.2331 99 3 156
1892011S05088 1892 3 SI WA NOT_NAMED 1892-01-17 15:00:00 NR -14.6964 90.2884 main 1736 1736 _____P________ -1 -14.6964 90.2884 99 2 153
1892011S05088 1892 3 SI WA NOT_NAMED 1892-01-17 18:00:00 NR -14.7949 90.3378 main 1745 1739 _____P________ -1 -14.7949 90.3378 99 2 154
1892011S05088 1892 3 SI WA NOT_NAMED 1892-01-17 21:00:00 NR -14.8816 90.3825 main 1748 1748 _____P________ -1 -14.8816 90.3825 99 2 155
1892011S05088 1892 3 SI WA NOT_NAMED 1892-01-18 00:00:00 NR -14.9593 90.4236 main 1758 1752 _____P________ -1 -14.9593 90.4236 99 2 153
1892011S05088 1892 3 SI WA NOT_NAMED 1892-01-18 03:00:00 NR -15.0311 90.4624 main 1752 1752 _____P________ -1 -15.0311 90.4624 99 2 153
1892011S05088 1892 3 SI WA NOT_NAMED 1892-01-18 06:00:00 NR -15.1000 90.5000 main 1761 _____O________ -1 -15.1000 90.5000 99 9.90000 2 150

About IBTrACS Database

This database is a web-friendly format of International Best Track Archive for Climate Stewardship (IBTrACS), a global best track data archive curated by NOAA dating back to 1842.

Updated: 2021-10-21